sensor_id;sensor_type;location;lat;lon;timestamp;P1;durP1;ratioP1;P2;durP2;ratioP2
71435;SDS011;59251;51.326;12.370;2023-08-30T00:00:26;6.75;;;3.08;;
71435;SDS011;59251;51.326;12.370;2023-08-30T00:02:52;9.73;;;3.70;;
71435;SDS011;59251;51.326;12.370;2023-08-30T00:05:19;8.02;;;3.30;;
71435;SDS011;59251;51.326;12.370;2023-08-30T00:07:46;8.10;;;3.63;;
71435;SDS011;59251;51.326;12.370;2023-08-30T00:10:12;7.40;;;3.45;;
71435;SDS011;59251;51.326;12.370;2023-08-30T00:12:39;9.88;;;3.95;;
71435;SDS011;59251;51.326;12.370;2023-08-30T00:15:06;8.75;;;3.15;;
71435;SDS011;59251;51.326;12.370;2023-08-30T00:17:35;7.40;;;3.30;;
71435;SDS011;59251;51.326;12.370;2023-08-30T00:20:02;8.43;;;2.97;;
71435;SDS011;59251;51.326;12.370;2023-08-30T00:22:29;8.82;;;3.33;;
71435;SDS011;59251;51.326;12.370;2023-08-30T00:24:56;7.10;;;3.20;;
71435;SDS011;59251;51.326;12.370;2023-08-30T00:27:23;9.73;;;3.35;;
71435;SDS011;59251;51.326;12.370;2023-08-30T00:29:49;7.85;;;3.10;;
71435;SDS011;59251;51.326;12.370;2023-08-30T00:32:16;6.97;;;3.17;;
71435;SDS011;59251;51.326;12.370;2023-08-30T00:34:44;7.28;;;3.40;;
71435;SDS011;59251;51.326;12.370;2023-08-30T00:37:11;8.50;;;3.13;;
71435;SDS011;59251;51.326;12.370;2023-08-30T00:39:38;9.38;;;3.65;;
71435;SDS011;59251;51.326;12.370;2023-08-30T00:42:06;8.68;;;3.55;;
71435;SDS011;59251;51.326;12.370;2023-08-30T00:44:34;9.33;;;3.33;;
71435;SDS011;59251;51.326;12.370;2023-08-30T00:47:00;8.60;;;3.53;;
71435;SDS011;59251;51.326;12.370;2023-08-30T00:49:28;7.88;;;3.22;;
71435;SDS011;59251;51.326;12.370;2023-08-30T00:51:56;7.60;;;3.72;;
71435;SDS011;59251;51.326;12.370;2023-08-30T00:54:23;7.72;;;3.67;;
71435;SDS011;59251;51.326;12.370;2023-08-30T00:56:50;6.70;;;3.10;;
71435;SDS011;59251;51.326;12.370;2023-08-30T00:59:17;9.20;;;3.50;;
71435;SDS011;59251;51.326;12.370;2023-08-30T01:01:44;8.10;;;3.15;;
71435;SDS011;59251;51.326;12.370;2023-08-30T01:04:11;8.13;;;3.38;;
71435;SDS011;59251;51.326;12.370;2023-08-30T01:06:38;8.15;;;3.42;;
71435;SDS011;59251;51.326;12.370;2023-08-30T01:09:06;8.27;;;3.37;;
71435;SDS011;59251;51.326;12.370;2023-08-30T01:11:35;8.77;;;3.45;;
71435;SDS011;59251;51.326;12.370;2023-08-30T01:14:07;10.48;;;2.97;;
71435;SDS011;59251;51.326;12.370;2023-08-30T01:16:35;8.23;;;3.20;;
71435;SDS011;59251;51.326;12.370;2023-08-30T01:19:04;6.80;;;2.75;;
71435;SDS011;59251;51.326;12.370;2023-08-30T01:21:43;8.67;;;3.27;;
71435;SDS011;59251;51.326;12.370;2023-08-30T01:24:20;8.15;;;2.95;;
71435;SDS011;59251;51.326;12.370;2023-08-30T01:27:01;7.70;;;3.45;;
71435;SDS011;59251;51.326;12.370;2023-08-30T01:29:34;7.93;;;3.50;;
71435;SDS011;59251;51.326;12.370;2023-08-30T01:32:03;8.43;;;3.78;;
71435;SDS011;59251;51.326;12.370;2023-08-30T01:34:31;8.10;;;3.73;;
71435;SDS011;59251;51.326;12.370;2023-08-30T01:36:58;7.32;;;3.22;;
71435;SDS011;59251;51.326;12.370;2023-08-30T01:39:26;6.72;;;2.95;;
71435;SDS011;59251;51.326;12.370;2023-08-30T01:41:53;6.53;;;2.35;;
71435;SDS011;59251;51.326;12.370;2023-08-30T01:44:25;7.78;;;2.85;;
71435;SDS011;59251;51.326;12.370;2023-08-30T01:46:53;8.27;;;2.90;;
71435;SDS011;59251;51.326;12.370;2023-08-30T01:49:21;10.48;;;3.30;;
71435;SDS011;59251;51.326;12.370;2023-08-30T01:51:48;7.75;;;3.15;;
71435;SDS011;59251;51.326;12.370;2023-08-30T01:54:17;7.88;;;2.92;;
71435;SDS011;59251;51.326;12.370;2023-08-30T01:56:45;8.32;;;3.13;;
71435;SDS011;59251;51.326;12.370;2023-08-30T01:59:12;8.03;;;3.33;;
71435;SDS011;59251;51.326;12.370;2023-08-30T02:01:40;11.30;;;3.40;;
71435;SDS011;59251;51.326;12.370;2023-08-30T02:04:07;9.57;;;3.95;;
71435;SDS011;59251;51.326;12.370;2023-08-30T02:06:35;7.72;;;3.13;;
71435;SDS011;59251;51.326;12.370;2023-08-30T02:09:17;9.50;;;4.13;;
71435;SDS011;59251;51.326;12.370;2023-08-30T02:11:47;12.30;;;4.30;;
71435;SDS011;59251;51.326;12.370;2023-08-30T02:14:17;9.07;;;3.60;;
71435;SDS011;59251;51.326;12.370;2023-08-30T02:16:46;10.48;;;4.05;;
71435;SDS011;59251;51.326;12.370;2023-08-30T02:19:14;7.55;;;3.47;;
71435;SDS011;59251;51.326;12.370;2023-08-30T02:21:42;9.57;;;4.00;;
71435;SDS011;59251;51.326;12.370;2023-08-30T02:24:09;9.17;;;3.40;;
71435;SDS011;59251;51.326;12.370;2023-08-30T02:26:36;7.45;;;3.40;;
71435;SDS011;59251;51.326;12.370;2023-08-30T02:29:03;8.70;;;3.70;;
71435;SDS011;59251;51.326;12.370;2023-08-30T02:31:29;10.15;;;3.88;;
71435;SDS011;59251;51.326;12.370;2023-08-30T02:33:58;8.43;;;3.33;;
71435;SDS011;59251;51.326;12.370;2023-08-30T02:36:24;8.47;;;3.63;;
71435;SDS011;59251;51.326;12.370;2023-08-30T02:38:51;8.73;;;3.42;;
71435;SDS011;59251;51.326;12.370;2023-08-30T02:41:18;9.98;;;3.55;;
71435;SDS011;59251;51.326;12.370;2023-08-30T02:43:47;8.95;;;3.58;;
71435;SDS011;59251;51.326;12.370;2023-08-30T02:46:14;11.07;;;4.05;;
71435;SDS011;59251;51.326;12.370;2023-08-30T02:48:40;9.83;;;4.23;;
71435;SDS011;59251;51.326;12.370;2023-08-30T02:51:08;11.23;;;4.35;;
71435;SDS011;59251;51.326;12.370;2023-08-30T02:53:35;10.85;;;4.35;;
71435;SDS011;59251;51.326;12.370;2023-08-30T02:56:02;9.02;;;4.50;;
71435;SDS011;59251;51.326;12.370;2023-08-30T02:58:29;11.23;;;5.00;;
71435;SDS011;59251;51.326;12.370;2023-08-30T03:00:59;15.30;;;5.83;;
71435;SDS011;59251;51.326;12.370;2023-08-30T03:03:26;12.10;;;4.90;;
71435;SDS011;59251;51.326;12.370;2023-08-30T03:05:53;11.20;;;5.43;;
71435;SDS011;59251;51.326;12.370;2023-08-30T03:08:21;12.32;;;5.88;;
71435;SDS011;59251;51.326;12.370;2023-08-30T03:10:48;9.45;;;5.32;;
71435;SDS011;59251;51.326;12.370;2023-08-30T03:13:14;10.67;;;5.27;;
71435;SDS011;59251;51.326;12.370;2023-08-30T03:15:42;11.73;;;5.43;;
71435;SDS011;59251;51.326;12.370;2023-08-30T03:18:09;9.77;;;5.20;;
71435;SDS011;59251;51.326;12.370;2023-08-30T03:20:36;9.55;;;5.45;;
71435;SDS011;59251;51.326;12.370;2023-08-30T03:23:02;12.23;;;5.53;;
71435;SDS011;59251;51.326;12.370;2023-08-30T03:25:33;9.97;;;5.07;;
71435;SDS011;59251;51.326;12.370;2023-08-30T03:27:59;11.30;;;5.47;;
71435;SDS011;59251;51.326;12.370;2023-08-30T03:30:26;12.02;;;4.78;;
71435;SDS011;59251;51.326;12.370;2023-08-30T03:32:53;19.00;;;6.70;;
71435;SDS011;59251;51.326;12.370;2023-08-30T03:35:20;12.10;;;5.13;;
71435;SDS011;59251;51.326;12.370;2023-08-30T03:37:47;9.60;;;4.77;;
71435;SDS011;59251;51.326;12.370;2023-08-30T03:40:13;10.40;;;5.65;;
71435;SDS011;59251;51.326;12.370;2023-08-30T03:42:43;10.73;;;5.53;;
71435;SDS011;59251;51.326;12.370;2023-08-30T03:45:10;10.13;;;5.10;;
71435;SDS011;59251;51.326;12.370;2023-08-30T03:47:37;11.05;;;5.05;;
71435;SDS011;59251;51.326;12.370;2023-08-30T03:50:04;9.33;;;5.03;;
71435;SDS011;59251;51.326;12.370;2023-08-30T03:52:33;11.02;;;4.80;;
71435;SDS011;59251;51.326;12.370;2023-08-30T03:55:00;10.85;;;4.95;;
71435;SDS011;59251;51.326;12.370;2023-08-30T03:57:27;9.05;;;5.03;;
71435;SDS011;59251;51.326;12.370;2023-08-30T03:59:56;9.45;;;4.70;;
71435;SDS011;59251;51.326;12.370;2023-08-30T04:02:22;12.70;;;4.90;;
71435;SDS011;59251;51.326;12.370;2023-08-30T04:04:49;14.77;;;7.22;;
71435;SDS011;59251;51.326;12.370;2023-08-30T04:07:16;11.00;;;5.60;;
71435;SDS011;59251;51.326;12.370;2023-08-30T04:09:42;9.40;;;5.28;;
71435;SDS011;59251;51.326;12.370;2023-08-30T04:12:09;10.30;;;5.53;;
71435;SDS011;59251;51.326;12.370;2023-08-30T04:14:36;10.80;;;5.50;;
71435;SDS011;59251;51.326;12.370;2023-08-30T04:17:04;13.70;;;4.75;;
71435;SDS011;59251;51.326;12.370;2023-08-30T04:19:33;10.65;;;5.10;;
71435;SDS011;59251;51.326;12.370;2023-08-30T04:22:00;9.70;;;4.72;;
71435;SDS011;59251;51.326;12.370;2023-08-30T04:24:26;12.00;;;5.40;;
71435;SDS011;59251;51.326;12.370;2023-08-30T04:26:53;11.57;;;5.80;;
71435;SDS011;59251;51.326;12.370;2023-08-30T04:29:20;13.38;;;6.22;;
71435;SDS011;59251;51.326;12.370;2023-08-30T04:31:46;11.68;;;6.38;;
71435;SDS011;59251;51.326;12.370;2023-08-30T04:34:14;13.57;;;6.00;;
71435;SDS011;59251;51.326;12.370;2023-08-30T04:36:41;11.43;;;5.95;;
71435;SDS011;59251;51.326;12.370;2023-08-30T04:39:08;12.27;;;6.00;;
71435;SDS011;59251;51.326;12.370;2023-08-30T04:41:36;11.45;;;6.20;;
71435;SDS011;59251;51.326;12.370;2023-08-30T04:44:03;15.23;;;6.72;;
71435;SDS011;59251;51.326;12.370;2023-08-30T04:46:30;13.38;;;7.30;;
71435;SDS011;59251;51.326;12.370;2023-08-30T04:48:57;13.82;;;7.70;;
71435;SDS011;59251;51.326;12.370;2023-08-30T04:51:25;15.87;;;7.37;;
71435;SDS011;59251;51.326;12.370;2023-08-30T04:53:52;14.18;;;8.40;;
71435;SDS011;59251;51.326;12.370;2023-08-30T04:56:19;14.55;;;7.28;;
71435;SDS011;59251;51.326;12.370;2023-08-30T04:58:46;15.70;;;7.43;;
71435;SDS011;59251;51.326;12.370;2023-08-30T05:01:12;13.77;;;7.78;;
71435;SDS011;59251;51.326;12.370;2023-08-30T05:03:41;19.67;;;8.10;;
71435;SDS011;59251;51.326;12.370;2023-08-30T05:06:10;13.10;;;6.55;;
71435;SDS011;59251;51.326;12.370;2023-08-30T05:08:42;11.43;;;5.90;;
71435;SDS011;59251;51.326;12.370;2023-08-30T05:11:09;10.57;;;5.78;;
71435;SDS011;59251;51.326;12.370;2023-08-30T05:13:37;10.82;;;5.80;;
71435;SDS011;59251;51.326;12.370;2023-08-30T05:16:04;14.13;;;5.67;;
71435;SDS011;59251;51.326;12.370;2023-08-30T05:18:31;10.70;;;5.97;;
71435;SDS011;59251;51.326;12.370;2023-08-30T05:21:00;13.85;;;6.25;;
71435;SDS011;59251;51.326;12.370;2023-08-30T05:23:29;11.73;;;6.65;;
71435;SDS011;59251;51.326;12.370;2023-08-30T05:25:57;12.95;;;7.47;;
71435;SDS011;59251;51.326;12.370;2023-08-30T05:28:24;14.20;;;6.83;;
71435;SDS011;59251;51.326;12.370;2023-08-30T05:30:51;15.02;;;6.70;;
71435;SDS011;59251;51.326;12.370;2023-08-30T05:33:28;11.73;;;6.70;;
71435;SDS011;59251;51.326;12.370;2023-08-30T05:36:20;15.40;;;7.18;;
71435;SDS011;59251;51.326;12.370;2023-08-30T05:38:58;11.77;;;6.57;;
71435;SDS011;59251;51.326;12.370;2023-08-30T05:41:34;11.90;;;6.50;;
71435;SDS011;59251;51.326;12.370;2023-08-30T05:44:01;12.90;;;6.93;;
71435;SDS011;59251;51.326;12.370;2023-08-30T05:46:28;14.63;;;7.50;;
71435;SDS011;59251;51.326;12.370;2023-08-30T05:48:54;13.40;;;6.32;;
71435;SDS011;59251;51.326;12.370;2023-08-30T05:51:22;12.45;;;6.55;;
71435;SDS011;59251;51.326;12.370;2023-08-30T05:53:49;15.37;;;6.40;;
71435;SDS011;59251;51.326;12.370;2023-08-30T05:56:16;14.88;;;6.55;;
71435;SDS011;59251;51.326;12.370;2023-08-30T05:58:44;13.77;;;7.45;;
71435;SDS011;59251;51.326;12.370;2023-08-30T06:01:11;12.60;;;7.18;;
71435;SDS011;59251;51.326;12.370;2023-08-30T06:03:38;11.88;;;6.80;;
71435;SDS011;59251;51.326;12.370;2023-08-30T06:06:05;11.33;;;6.27;;
71435;SDS011;59251;51.326;12.370;2023-08-30T06:08:32;12.30;;;6.25;;
71435;SDS011;59251;51.326;12.370;2023-08-30T06:10:58;11.05;;;6.10;;
71435;SDS011;59251;51.326;12.370;2023-08-30T06:13:25;11.88;;;5.78;;
71435;SDS011;59251;51.326;12.370;2023-08-30T06:15:53;11.63;;;6.32;;
71435;SDS011;59251;51.326;12.370;2023-08-30T06:18:20;10.67;;;5.90;;
71435;SDS011;59251;51.326;12.370;2023-08-30T06:20:47;10.00;;;6.18;;
71435;SDS011;59251;51.326;12.370;2023-08-30T06:23:13;12.60;;;5.97;;
71435;SDS011;59251;51.326;12.370;2023-08-30T06:25:41;9.65;;;5.20;;
71435;SDS011;59251;51.326;12.370;2023-08-30T06:28:08;10.90;;;5.05;;
71435;SDS011;59251;51.326;12.370;2023-08-30T06:30:34;11.07;;;5.60;;
71435;SDS011;59251;51.326;12.370;2023-08-30T06:33:03;12.25;;;5.35;;
71435;SDS011;59251;51.326;12.370;2023-08-30T06:35:30;9.38;;;5.22;;
71435;SDS011;59251;51.326;12.370;2023-08-30T06:37:57;15.05;;;5.72;;
71435;SDS011;59251;51.326;12.370;2023-08-30T06:40:24;13.10;;;5.78;;
71435;SDS011;59251;51.326;12.370;2023-08-30T06:42:51;10.00;;;4.80;;
71435;SDS011;59251;51.326;12.370;2023-08-30T06:45:17;11.77;;;5.03;;
71435;SDS011;59251;51.326;12.370;2023-08-30T06:47:44;12.32;;;5.13;;
71435;SDS011;59251;51.326;12.370;2023-08-30T06:50:12;12.63;;;5.47;;
71435;SDS011;59251;51.326;12.370;2023-08-30T06:52:38;9.27;;;5.03;;
71435;SDS011;59251;51.326;12.370;2023-08-30T06:55:05;9.70;;;5.37;;
71435;SDS011;59251;51.326;12.370;2023-08-30T06:57:32;12.75;;;5.35;;
71435;SDS011;59251;51.326;12.370;2023-08-30T06:59:59;11.77;;;5.50;;
71435;SDS011;59251;51.326;12.370;2023-08-30T07:02:32;10.55;;;5.97;;
71435;SDS011;59251;51.326;12.370;2023-08-30T07:05:00;14.23;;;6.22;;
71435;SDS011;59251;51.326;12.370;2023-08-30T07:07:28;10.40;;;5.73;;
71435;SDS011;59251;51.326;12.370;2023-08-30T07:09:54;11.85;;;5.88;;
71435;SDS011;59251;51.326;12.370;2023-08-30T07:12:21;11.55;;;5.85;;
71435;SDS011;59251;51.326;12.370;2023-08-30T07:14:48;11.98;;;5.50;;
71435;SDS011;59251;51.326;12.370;2023-08-30T07:17:15;12.80;;;5.32;;
71435;SDS011;59251;51.326;12.370;2023-08-30T07:19:41;9.63;;;4.87;;
71435;SDS011;59251;51.326;12.370;2023-08-30T07:22:08;9.95;;;5.40;;
71435;SDS011;59251;51.326;12.370;2023-08-30T07:24:36;9.13;;;5.32;;
71435;SDS011;59251;51.326;12.370;2023-08-30T07:27:03;11.50;;;5.28;;
71435;SDS011;59251;51.326;12.370;2023-08-30T07:29:30;9.60;;;5.00;;
71435;SDS011;59251;51.326;12.370;2023-08-30T07:31:57;10.63;;;5.30;;
71435;SDS011;59251;51.326;12.370;2023-08-30T07:34:24;14.73;;;6.00;;
71435;SDS011;59251;51.326;12.370;2023-08-30T07:36:53;9.80;;;5.03;;
71435;SDS011;59251;51.326;12.370;2023-08-30T07:39:20;14.52;;;5.00;;
71435;SDS011;59251;51.326;12.370;2023-08-30T07:41:49;10.25;;;4.18;;
71435;SDS011;59251;51.326;12.370;2023-08-30T07:44:16;8.87;;;4.20;;
71435;SDS011;59251;51.326;12.370;2023-08-30T07:46:44;10.70;;;4.78;;
71435;SDS011;59251;51.326;12.370;2023-08-30T07:49:11;10.25;;;4.82;;
71435;SDS011;59251;51.326;12.370;2023-08-30T07:51:38;9.05;;;4.47;;
71435;SDS011;59251;51.326;12.370;2023-08-30T07:54:05;7.95;;;4.10;;
71435;SDS011;59251;51.326;12.370;2023-08-30T07:56:31;8.53;;;4.17;;
71435;SDS011;59251;51.326;12.370;2023-08-30T07:58:59;8.60;;;4.15;;
71435;SDS011;59251;51.326;12.370;2023-08-30T08:01:26;7.60;;;3.92;;
71435;SDS011;59251;51.326;12.370;2023-08-30T08:03:54;8.50;;;4.07;;
71435;SDS011;59251;51.326;12.370;2023-08-30T08:06:20;9.82;;;3.90;;
71435;SDS011;59251;51.326;12.370;2023-08-30T08:08:47;7.47;;;3.50;;
71435;SDS011;59251;51.326;12.370;2023-08-30T08:11:14;8.52;;;3.63;;
71435;SDS011;59251;51.326;12.370;2023-08-30T08:13:40;9.23;;;3.50;;
71435;SDS011;59251;51.326;12.370;2023-08-30T08:16:09;8.98;;;3.28;;
71435;SDS011;59251;51.326;12.370;2023-08-30T08:18:35;11.10;;;3.60;;
71435;SDS011;59251;51.326;12.370;2023-08-30T08:21:02;6.80;;;2.93;;
71435;SDS011;59251;51.326;12.370;2023-08-30T08:23:29;9.25;;;3.17;;
71435;SDS011;59251;51.326;12.370;2023-08-30T08:25:59;7.20;;;3.03;;
71435;SDS011;59251;51.326;12.370;2023-08-30T08:28:25;6.60;;;2.58;;
71435;SDS011;59251;51.326;12.370;2023-08-30T08:30:52;7.57;;;2.60;;
71435;SDS011;59251;51.326;12.370;2023-08-30T08:33:20;7.57;;;3.10;;
71435;SDS011;59251;51.326;12.370;2023-08-30T08:35:49;7.35;;;2.92;;
71435;SDS011;59251;51.326;12.370;2023-08-30T08:38:16;9.00;;;3.38;;
71435;SDS011;59251;51.326;12.370;2023-08-30T08:40:43;7.05;;;3.00;;
71435;SDS011;59251;51.326;12.370;2023-08-30T08:43:10;6.85;;;2.90;;
71435;SDS011;59251;51.326;12.370;2023-08-30T08:45:38;7.27;;;2.50;;
71435;SDS011;59251;51.326;12.370;2023-08-30T08:48:05;6.65;;;2.92;;
71435;SDS011;59251;51.326;12.370;2023-08-30T08:50:35;8.85;;;2.90;;
71435;SDS011;59251;51.326;12.370;2023-08-30T08:53:02;7.32;;;2.20;;
71435;SDS011;59251;51.326;12.370;2023-08-30T08:55:30;5.93;;;2.40;;
71435;SDS011;59251;51.326;12.370;2023-08-30T08:57:57;5.70;;;1.93;;
71435;SDS011;59251;51.326;12.370;2023-08-30T09:00:25;6.30;;;1.98;;
71435;SDS011;59251;51.326;12.370;2023-08-30T09:02:52;5.30;;;1.80;;
71435;SDS011;59251;51.326;12.370;2023-08-30T09:05:20;8.40;;;2.17;;
71435;SDS011;59251;51.326;12.370;2023-08-30T09:07:48;6.63;;;1.83;;
71435;SDS011;59251;51.326;12.370;2023-08-30T09:10:19;5.90;;;1.80;;
71435;SDS011;59251;51.326;12.370;2023-08-30T09:12:46;4.93;;;1.27;;
71435;SDS011;59251;51.326;12.370;2023-08-30T09:15:13;4.90;;;1.10;;
71435;SDS011;59251;51.326;12.370;2023-08-30T09:17:40;6.40;;;1.58;;
71435;SDS011;59251;51.326;12.370;2023-08-30T09:20:08;5.97;;;1.10;;
71435;SDS011;59251;51.326;12.370;2023-08-30T09:22:35;5.13;;;1.30;;
71435;SDS011;59251;51.326;12.370;2023-08-30T09:25:05;6.00;;;1.52;;
71435;SDS011;59251;51.326;12.370;2023-08-30T09:27:32;6.55;;;1.30;;
71435;SDS011;59251;51.326;12.370;2023-08-30T09:29:59;5.00;;;1.38;;
71435;SDS011;59251;51.326;12.370;2023-08-30T09:32:26;5.57;;;1.48;;
71435;SDS011;59251;51.326;12.370;2023-08-30T09:34:53;6.60;;;1.30;;
71435;SDS011;59251;51.326;12.370;2023-08-30T09:37:20;4.63;;;1.13;;
71435;SDS011;59251;51.326;12.370;2023-08-30T09:39:50;6.40;;;1.20;;
71435;SDS011;59251;51.326;12.370;2023-08-30T09:42:18;6.32;;;1.33;;
71435;SDS011;59251;51.326;12.370;2023-08-30T09:44:45;5.85;;;1.30;;
71435;SDS011;59251;51.326;12.370;2023-08-30T09:47:12;5.53;;;1.13;;
71435;SDS011;59251;51.326;12.370;2023-08-30T09:49:42;5.07;;;1.30;;
71435;SDS011;59251;51.326;12.370;2023-08-30T09:52:10;4.95;;;1.48;;
71435;SDS011;59251;51.326;12.370;2023-08-30T09:54:40;5.65;;;1.60;;
71435;SDS011;59251;51.326;12.370;2023-08-30T09:57:09;7.50;;;1.70;;
71435;SDS011;59251;51.326;12.370;2023-08-30T09:59:37;5.70;;;1.50;;
71435;SDS011;59251;51.326;12.370;2023-08-30T10:02:05;6.95;;;1.40;;
71435;SDS011;59251;51.326;12.370;2023-08-30T10:04:35;6.43;;;1.40;;
71435;SDS011;59251;51.326;12.370;2023-08-30T10:07:04;5.50;;;1.60;;
71435;SDS011;59251;51.326;12.370;2023-08-30T10:09:33;5.70;;;1.63;;
71435;SDS011;59251;51.326;12.370;2023-08-30T10:11:59;6.47;;;1.70;;
71435;SDS011;59251;51.326;12.370;2023-08-30T10:14:29;4.85;;;1.35;;
71435;SDS011;59251;51.326;12.370;2023-08-30T10:16:58;5.07;;;1.30;;
71435;SDS011;59251;51.326;12.370;2023-08-30T10:19:29;6.63;;;1.75;;
71435;SDS011;59251;51.326;12.370;2023-08-30T10:21:58;5.47;;;1.63;;
71435;SDS011;59251;51.326;12.370;2023-08-30T10:24:28;5.20;;;1.50;;
71435;SDS011;59251;51.326;12.370;2023-08-30T10:26:58;5.60;;;1.70;;
71435;SDS011;59251;51.326;12.370;2023-08-30T10:29:27;7.30;;;1.85;;
71435;SDS011;59251;51.326;12.370;2023-08-30T10:31:55;5.30;;;1.52;;
71435;SDS011;59251;51.326;12.370;2023-08-30T10:34:23;5.70;;;1.80;;
71435;SDS011;59251;51.326;12.370;2023-08-30T10:36:56;4.97;;;1.60;;
71435;SDS011;59251;51.326;12.370;2023-08-30T10:39:27;4.95;;;1.42;;
71435;SDS011;59251;51.326;12.370;2023-08-30T10:42:00;5.10;;;1.67;;
71435;SDS011;59251;51.326;12.370;2023-08-30T10:44:32;5.93;;;2.00;;
71435;SDS011;59251;51.326;12.370;2023-08-30T10:47:01;8.50;;;2.10;;
71435;SDS011;59251;51.326;12.370;2023-08-30T10:49:38;6.40;;;1.63;;
71435;SDS011;59251;51.326;12.370;2023-08-30T10:52:05;6.18;;;2.05;;
71435;SDS011;59251;51.326;12.370;2023-08-30T10:54:38;5.82;;;1.70;;
71435;SDS011;59251;51.326;12.370;2023-08-30T10:57:05;6.07;;;1.80;;
71435;SDS011;59251;51.326;12.370;2023-08-30T10:59:31;6.57;;;2.30;;
71435;SDS011;59251;51.326;12.370;2023-08-30T11:02:00;6.30;;;2.70;;
71435;SDS011;59251;51.326;12.370;2023-08-30T11:04:28;6.50;;;3.10;;
71435;SDS011;59251;51.326;12.370;2023-08-30T11:06:56;6.72;;;3.08;;
71435;SDS011;59251;51.326;12.370;2023-08-30T11:09:23;6.65;;;3.17;;
71435;SDS011;59251;51.326;12.370;2023-08-30T11:11:51;8.93;;;4.13;;
71435;SDS011;59251;51.326;12.370;2023-08-30T11:14:18;7.70;;;3.90;;
71435;SDS011;59251;51.326;12.370;2023-08-30T11:16:45;6.95;;;4.00;;
71435;SDS011;59251;51.326;12.370;2023-08-30T11:19:12;7.50;;;3.47;;
71435;SDS011;59251;51.326;12.370;2023-08-30T11:21:39;5.70;;;2.53;;
71435;SDS011;59251;51.326;12.370;2023-08-30T11:24:09;5.95;;;2.40;;
71435;SDS011;59251;51.326;12.370;2023-08-30T11:26:37;6.33;;;2.23;;
71435;SDS011;59251;51.326;12.370;2023-08-30T11:29:04;6.72;;;2.25;;
71435;SDS011;59251;51.326;12.370;2023-08-30T11:31:32;6.43;;;2.00;;
71435;SDS011;59251;51.326;12.370;2023-08-30T11:33:58;5.70;;;2.28;;
71435;SDS011;59251;51.326;12.370;2023-08-30T11:36:26;5.93;;;1.95;;
71435;SDS011;59251;51.326;12.370;2023-08-30T11:38:54;5.10;;;1.50;;
71435;SDS011;59251;51.326;12.370;2023-08-30T11:41:22;4.70;;;1.40;;
71435;SDS011;59251;51.326;12.370;2023-08-30T11:43:50;4.60;;;1.50;;
71435;SDS011;59251;51.326;12.370;2023-08-30T11:46:17;5.60;;;1.92;;
71435;SDS011;59251;51.326;12.370;2023-08-30T11:48:44;5.93;;;1.80;;
71435;SDS011;59251;51.326;12.370;2023-08-30T11:51:12;7.40;;;1.60;;
71435;SDS011;59251;51.326;12.370;2023-08-30T11:53:39;5.70;;;1.40;;
71435;SDS011;59251;51.326;12.370;2023-08-30T11:56:06;6.53;;;1.77;;
71435;SDS011;59251;51.326;12.370;2023-08-30T11:58:36;5.38;;;1.63;;
71435;SDS011;59251;51.326;12.370;2023-08-30T12:01:03;5.22;;;1.70;;
71435;SDS011;59251;51.326;12.370;2023-08-30T12:03:30;6.97;;;1.60;;
71435;SDS011;59251;51.326;12.370;2023-08-30T12:05:58;4.85;;;1.40;;
71435;SDS011;59251;51.326;12.370;2023-08-30T12:08:27;6.45;;;1.90;;
71435;SDS011;59251;51.326;12.370;2023-08-30T12:10:55;4.95;;;1.50;;
71435;SDS011;59251;51.326;12.370;2023-08-30T12:13:22;6.47;;;1.60;;
71435;SDS011;59251;51.326;12.370;2023-08-30T12:15:52;5.57;;;1.73;;
71435;SDS011;59251;51.326;12.370;2023-08-30T12:18:22;5.00;;;1.50;;
71435;SDS011;59251;51.326;12.370;2023-08-30T12:20:52;5.03;;;1.73;;
71435;SDS011;59251;51.326;12.370;2023-08-30T12:23:20;6.15;;;1.70;;
71435;SDS011;59251;51.326;12.370;2023-08-30T12:25:57;5.03;;;1.50;;
71435;SDS011;59251;51.326;12.370;2023-08-30T12:28:25;5.63;;;1.50;;
71435;SDS011;59251;51.326;12.370;2023-08-30T12:30:53;5.68;;;1.75;;
71435;SDS011;59251;51.326;12.370;2023-08-30T12:33:20;5.30;;;1.88;;
71435;SDS011;59251;51.326;12.370;2023-08-30T12:35:47;5.78;;;1.70;;
71435;SDS011;59251;51.326;12.370;2023-08-30T12:38:14;4.70;;;1.50;;
71435;SDS011;59251;51.326;12.370;2023-08-30T12:40:43;5.00;;;1.60;;
71435;SDS011;59251;51.326;12.370;2023-08-30T12:43:11;5.50;;;1.50;;
71435;SDS011;59251;51.326;12.370;2023-08-30T12:45:38;5.95;;;1.40;;
71435;SDS011;59251;51.326;12.370;2023-08-30T12:48:07;5.07;;;1.60;;
71435;SDS011;59251;51.326;12.370;2023-08-30T12:50:34;5.20;;;1.60;;
71435;SDS011;59251;51.326;12.370;2023-08-30T12:53:01;6.63;;;1.43;;
71435;SDS011;59251;51.326;12.370;2023-08-30T12:55:28;4.60;;;1.40;;
71435;SDS011;59251;51.326;12.370;2023-08-30T12:57:55;5.60;;;1.65;;
71435;SDS011;59251;51.326;12.370;2023-08-30T13:00:22;5.03;;;1.70;;
71435;SDS011;59251;51.326;12.370;2023-08-30T13:02:49;7.82;;;1.92;;
71435;SDS011;59251;51.326;12.370;2023-08-30T13:05:18;5.10;;;1.60;;
71435;SDS011;59251;51.326;12.370;2023-08-30T13:07:46;4.88;;;1.65;;
71435;SDS011;59251;51.326;12.370;2023-08-30T13:10:13;5.20;;;1.60;;
71435;SDS011;59251;51.326;12.370;2023-08-30T13:12:40;5.10;;;1.30;;
71435;SDS011;59251;51.326;12.370;2023-08-30T13:15:07;5.82;;;1.50;;
71435;SDS011;59251;51.326;12.370;2023-08-30T13:17:35;6.10;;;1.33;;
71435;SDS011;59251;51.326;12.370;2023-08-30T13:20:02;4.72;;;1.20;;
71435;SDS011;59251;51.326;12.370;2023-08-30T13:22:31;5.28;;;1.73;;
71435;SDS011;59251;51.326;12.370;2023-08-30T13:24:58;4.90;;;1.63;;
71435;SDS011;59251;51.326;12.370;2023-08-30T13:27:25;4.60;;;1.20;;
71435;SDS011;59251;51.326;12.370;2023-08-30T13:29:52;5.30;;;1.43;;
71435;SDS011;59251;51.326;12.370;2023-08-30T13:32:18;6.82;;;1.33;;
71435;SDS011;59251;51.326;12.370;2023-08-30T13:34:45;4.97;;;1.30;;
71435;SDS011;59251;51.326;12.370;2023-08-30T13:37:12;4.88;;;1.27;;
71435;SDS011;59251;51.326;12.370;2023-08-30T13:39:40;4.75;;;1.33;;
71435;SDS011;59251;51.326;12.370;2023-08-30T13:42:07;4.80;;;1.40;;
71435;SDS011;59251;51.326;12.370;2023-08-30T13:44:35;5.15;;;1.20;;
71435;SDS011;59251;51.326;12.370;2023-08-30T13:47:02;6.22;;;1.50;;
71435;SDS011;59251;51.326;12.370;2023-08-30T13:49:29;4.72;;;1.45;;
71435;SDS011;59251;51.326;12.370;2023-08-30T13:51:56;6.00;;;1.52;;
71435;SDS011;59251;51.326;12.370;2023-08-30T13:54:23;7.17;;;1.40;;
71435;SDS011;59251;51.326;12.370;2023-08-30T13:56:51;4.78;;;1.10;;
71435;SDS011;59251;51.326;12.370;2023-08-30T13:59:18;5.45;;;1.33;;
71435;SDS011;59251;51.326;12.370;2023-08-30T14:01:45;4.93;;;1.40;;
71435;SDS011;59251;51.326;12.370;2023-08-30T14:04:11;6.15;;;1.10;;
71435;SDS011;59251;51.326;12.370;2023-08-30T14:06:39;6.10;;;1.50;;
71435;SDS011;59251;51.326;12.370;2023-08-30T14:09:06;4.97;;;1.23;;
71435;SDS011;59251;51.326;12.370;2023-08-30T14:11:33;5.22;;;1.58;;
71435;SDS011;59251;51.326;12.370;2023-08-30T14:14:02;4.85;;;1.50;;
71435;SDS011;59251;51.326;12.370;2023-08-30T14:16:29;4.43;;;1.20;;
71435;SDS011;59251;51.326;12.370;2023-08-30T14:18:55;5.00;;;1.43;;
71435;SDS011;59251;51.326;12.370;2023-08-30T14:21:25;5.07;;;1.40;;
71435;SDS011;59251;51.326;12.370;2023-08-30T14:23:52;5.07;;;1.30;;
71435;SDS011;59251;51.326;12.370;2023-08-30T14:26:19;4.60;;;1.30;;
71435;SDS011;59251;51.326;12.370;2023-08-30T14:28:46;5.95;;;1.55;;
71435;SDS011;59251;51.326;12.370;2023-08-30T14:31:14;4.90;;;1.50;;
71435;SDS011;59251;51.326;12.370;2023-08-30T14:33:42;5.00;;;1.40;;